createdAt,value
2016-10-07T00:00:06.887Z,1004.46
2016-10-07T00:01:06.904Z,1004.45
2016-10-07T00:02:06.924Z,1004.44
2016-10-07T00:03:06.938Z,1004.44
2016-10-07T00:04:06.954Z,1004.48
2016-10-07T00:05:06.971Z,1004.46
2016-10-07T00:06:06.988Z,1004.45
2016-10-07T00:07:07.002Z,1004.43
2016-10-07T00:08:07.017Z,1004.4
2016-10-07T00:09:07.037Z,1004.45
2016-10-07T00:10:07.055Z,1004.46
2016-10-07T00:11:07.068Z,1004.43
2016-10-07T00:12:07.084Z,1004.43
2016-10-07T00:13:07.101Z,1004.44
2016-10-07T00:14:07.119Z,1004.48
2016-10-07T00:15:07.140Z,1004.45
2016-10-07T00:16:07.152Z,1004.45
2016-10-07T00:17:07.171Z,1004.41
2016-10-07T00:18:07.182Z,1004.45
2016-10-07T00:19:07.206Z,1004.48
2016-10-07T00:20:07.226Z,1004.48
2016-10-07T00:21:07.248Z,1004.54
2016-10-07T00:22:07.261Z,1004.56
2016-10-07T00:23:07.272Z,1004.51
2016-10-07T00:24:07.295Z,1004.51
2016-10-07T00:25:07.306Z,1004.51
2016-10-07T00:26:07.323Z,1004.54
2016-10-07T00:27:07.341Z,1004.52
2016-10-07T00:28:07.361Z,1004.55
2016-10-07T00:29:07.382Z,1004.55
2016-10-07T00:30:07.389Z,1004.53
2016-10-07T00:31:07.403Z,1004.56
2016-10-07T00:32:07.425Z,1004.57
2016-10-07T00:33:07.438Z,1004.48
2016-10-07T00:34:07.457Z,1004.51
2016-10-07T00:35:07.474Z,1004.55
2016-10-07T00:36:07.489Z,1004.53
2016-10-07T00:37:07.500Z,1004.47
2016-10-07T00:38:07.520Z,1004.49
2016-10-07T00:39:07.539Z,1004.45
2016-10-07T00:40:07.551Z,1004.45
2016-10-07T00:41:07.571Z,1004.47
2016-10-07T00:42:07.589Z,1004.5
2016-10-07T00:43:07.601Z,1004.47
2016-10-07T00:44:07.616Z,1004.44
2016-10-07T00:45:07.637Z,1004.53
2016-10-07T00:46:07.662Z,1004.49
2016-10-07T00:47:07.665Z,1004.48
2016-10-07T00:48:07.686Z,1004.51
2016-10-07T00:49:07.702Z,1004.46
2016-10-07T00:50:07.721Z,1004.45
2016-10-07T00:51:07.735Z,1004.43
2016-10-07T00:52:07.752Z,1004.43
2016-10-07T00:53:07.768Z,1004.38
2016-10-07T00:54:07.788Z,1004.38
2016-10-07T00:55:07.802Z,1004.28
2016-10-07T00:56:07.815Z,1004.33
2016-10-07T00:57:07.836Z,1004.4
2016-10-07T00:58:07.850Z,1004.41
2016-10-07T00:59:07.867Z,1004.39
2016-10-07T01:00:07.882Z,1004.37
2016-10-07T01:01:07.900Z,1004.42
2016-10-07T01:02:07.917Z,1004.4
2016-10-07T01:03:07.931Z,1004.36
2016-10-07T01:04:07.942Z,1004.34
2016-10-07T01:05:07.963Z,1004.32
2016-10-07T01:06:07.977Z,1004.37
2016-10-07T01:07:07.996Z,1004.33
2016-10-07T01:08:08.016Z,1004.35
2016-10-07T01:09:08.027Z,1004.28
2016-10-07T01:10:08.044Z,1004.28
2016-10-07T01:11:08.066Z,1004.25
2016-10-07T01:12:08.076Z,1004.25
2016-10-07T01:13:08.098Z,1004.27
2016-10-07T01:14:08.109Z,1004.3
2016-10-07T01:15:08.127Z,1004.26
2016-10-07T01:16:08.142Z,1004.28
2016-10-07T01:17:08.158Z,1004.2
2016-10-07T01:18:08.182Z,1004.2
2016-10-07T01:19:08.198Z,1004.19
2016-10-07T01:20:08.206Z,1004.17
2016-10-07T01:21:08.229Z,1004.22
2016-10-07T01:22:08.244Z,1004.21
2016-10-07T01:23:08.257Z,1004.17
2016-10-07T01:24:08.274Z,1004.16
2016-10-07T01:25:08.294Z,1004.09
2016-10-07T01:26:08.309Z,1004.09
2016-10-07T01:27:08.322Z,1004.08
2016-10-07T01:28:08.337Z,1004.15
2016-10-07T01:29:08.356Z,1004.13
2016-10-07T01:30:08.377Z,1004.08
2016-10-07T01:31:08.393Z,1004.1
2016-10-07T01:32:08.406Z,1004.08
2016-10-07T01:33:08.421Z,1004.04
2016-10-07T01:34:08.445Z,1004.07
2016-10-07T01:35:08.455Z,1004.04
2016-10-07T01:36:08.473Z,1004.05
2016-10-07T01:37:08.493Z,1004.05
2016-10-07T01:38:08.509Z,1004.05
2016-10-07T01:39:08.524Z,1004.02
2016-10-07T01:40:08.536Z,1004.05
2016-10-07T01:41:08.559Z,1004.04
2016-10-07T01:42:08.571Z,1004.04
2016-10-07T01:43:08.590Z,1004.05
2016-10-07T01:44:08.605Z,1004.06
2016-10-07T01:45:08.619Z,1004.08
2016-10-07T01:46:08.635Z,1004.02
2016-10-07T01:47:08.652Z,1004.07
2016-10-07T01:48:08.668Z,1004.07
2016-10-07T01:49:08.682Z,1004.05
2016-10-07T01:50:08.706Z,1004.04
2016-10-07T01:51:08.723Z,1003.98
2016-10-07T01:52:08.746Z,1004
2016-10-07T01:53:08.755Z,1003.95
2016-10-07T01:54:08.768Z,1003.97
2016-10-07T01:55:08.787Z,1003.92
2016-10-07T01:56:08.801Z,1003.95
2016-10-07T01:57:08.814Z,1003.87
2016-10-07T01:58:08.833Z,1003.91
2016-10-07T01:59:08.853Z,1003.92
2016-10-07T02:00:08.865Z,1003.9
2016-10-07T02:01:08.882Z,1003.9
2016-10-07T02:02:08.901Z,1003.89
2016-10-07T02:03:08.917Z,1003.9
2016-10-07T02:04:08.930Z,1003.86
2016-10-07T02:05:08.948Z,1003.83
2016-10-07T02:06:08.969Z,1003.81
2016-10-07T02:07:08.985Z,1003.83
2016-10-07T02:08:09.002Z,1003.83
2016-10-07T02:09:09.018Z,1003.82
2016-10-07T02:10:09.032Z,1003.82
2016-10-07T02:11:09.048Z,1003.73
2016-10-07T02:12:09.061Z,1003.75
2016-10-07T02:13:09.081Z,1003.76
2016-10-07T02:14:09.096Z,1003.78
2016-10-07T02:15:09.114Z,1003.79
2016-10-07T02:16:09.132Z,1003.79
2016-10-07T02:17:09.149Z,1003.76
2016-10-07T02:18:09.160Z,1003.78
2016-10-07T02:19:09.178Z,1003.78
2016-10-07T02:20:09.194Z,1003.81
2016-10-07T02:21:09.210Z,1003.79
2016-10-07T02:22:09.232Z,1003.81
2016-10-07T02:23:09.247Z,1003.8
2016-10-07T02:24:09.264Z,1003.77
2016-10-07T02:25:09.279Z,1003.78
2016-10-07T02:26:09.297Z,1003.77
2016-10-07T02:27:09.307Z,1003.79
2016-10-07T02:28:09.329Z,1003.76
2016-10-07T02:29:09.344Z,1003.77
2016-10-07T02:30:09.362Z,1003.79
2016-10-07T02:31:09.379Z,1003.76
2016-10-07T02:32:09.392Z,1003.76
2016-10-07T02:33:09.410Z,1003.77
2016-10-07T02:34:09.428Z,1003.77
2016-10-07T02:35:09.440Z,1003.78
2016-10-07T02:36:09.462Z,1003.79
2016-10-07T02:37:09.473Z,1003.81
2016-10-07T02:38:09.495Z,1003.78
2016-10-07T02:39:09.513Z,1003.82
2016-10-07T02:40:09.526Z,1003.86
2016-10-07T02:41:09.541Z,1003.87
2016-10-07T02:42:09.560Z,1003.87
2016-10-07T02:43:09.578Z,1003.86
2016-10-07T02:44:09.593Z,1003.84
2016-10-07T02:45:09.611Z,1003.85
2016-10-07T02:46:09.625Z,1003.81
2016-10-07T02:47:09.644Z,1003.82
2016-10-07T02:48:09.659Z,1003.78
2016-10-07T02:49:09.673Z,1003.76
2016-10-07T02:50:09.695Z,1003.82
2016-10-07T02:51:09.708Z,1003.82
2016-10-07T02:52:09.725Z,1003.87
2016-10-07T02:53:09.739Z,1003.83
2016-10-07T02:54:09.759Z,1003.82
2016-10-07T02:55:09.775Z,1003.87
2016-10-07T02:56:09.789Z,1003.88
2016-10-07T02:57:09.804Z,1003.82
2016-10-07T02:58:09.826Z,1003.79
2016-10-07T02:59:09.841Z,1003.78
2016-10-07T03:00:09.853Z,1003.78
2016-10-07T03:01:09.871Z,1003.79
2016-10-07T03:02:09.889Z,1003.82
2016-10-07T03:03:09.905Z,1003.79
2016-10-07T03:04:09.920Z,1003.78
2016-10-07T03:05:09.941Z,1003.8
2016-10-07T03:06:09.953Z,1003.78
2016-10-07T03:07:09.970Z,1003.75
2016-10-07T03:08:09.985Z,1003.72
2016-10-07T03:09:10.002Z,1003.73
2016-10-07T03:10:10.022Z,1003.75
2016-10-07T03:11:10.036Z,1003.73
2016-10-07T03:12:10.052Z,1003.77
2016-10-07T03:13:10.073Z,1003.78
2016-10-07T03:14:10.090Z,1003.74
2016-10-07T03:15:10.100Z,1003.76
2016-10-07T03:16:10.125Z,1003.77
2016-10-07T03:17:10.137Z,1003.79
2016-10-07T03:18:10.151Z,1003.79
2016-10-07T03:19:10.172Z,1003.78
2016-10-07T03:20:10.188Z,1003.77
2016-10-07T03:21:10.203Z,1003.79
2016-10-07T03:22:10.223Z,1003.77
2016-10-07T03:23:10.235Z,1003.79
2016-10-07T03:24:10.254Z,1003.77
2016-10-07T03:25:10.269Z,1003.76
2016-10-07T03:26:10.284Z,1003.76
2016-10-07T03:27:10.300Z,1003.8
2016-10-07T03:28:10.324Z,1003.78
2016-10-07T03:29:10.333Z,1003.82
2016-10-07T03:30:10.355Z,1003.82
2016-10-07T03:31:10.369Z,1003.85
2016-10-07T03:32:10.383Z,1003.85
2016-10-07T03:33:10.401Z,1003.83
2016-10-07T03:34:10.421Z,1003.85
2016-10-07T03:35:10.432Z,1003.81
2016-10-07T03:36:10.451Z,1003.77
2016-10-07T03:37:10.466Z,1003.78
2016-10-07T03:38:10.487Z,1003.77
2016-10-07T03:39:10.502Z,1003.8
2016-10-07T03:40:10.518Z,1003.83
2016-10-07T03:41:10.534Z,1003.83
2016-10-07T03:42:10.552Z,1003.86
2016-10-07T03:43:10.568Z,1003.84
2016-10-07T03:44:10.581Z,1003.85
2016-10-07T03:45:10.601Z,1003.82
2016-10-07T03:46:10.610Z,1003.85
2016-10-07T03:47:10.634Z,1003.85
2016-10-07T03:48:10.650Z,1003.84
2016-10-07T03:49:10.665Z,1003.79
2016-10-07T03:50:10.675Z,1003.8
2016-10-07T03:51:10.696Z,1003.79
2016-10-07T03:52:10.713Z,1003.78
2016-10-07T03:53:10.727Z,1003.78
2016-10-07T03:54:10.748Z,1003.82
2016-10-07T03:55:10.764Z,1003.83
2016-10-07T03:56:10.781Z,1003.78
2016-10-07T03:57:10.789Z,1003.82
2016-10-07T03:58:10.812Z,1003.77
2016-10-07T03:59:10.826Z,1003.79
2016-10-07T04:02:10.883Z,1003.73
2016-10-07T04:03:10.892Z,1003.75
2016-10-07T04:04:10.907Z,1003.78
2016-10-07T04:05:10.918Z,1003.79
2016-10-07T04:06:10.939Z,1003.81
2016-10-07T04:07:10.955Z,1003.79
2016-10-07T04:08:10.971Z,1003.81
2016-10-07T04:09:10.989Z,1003.8
2016-10-07T04:10:11.007Z,1003.76
2016-10-07T04:11:11.020Z,1003.77
2016-10-07T04:12:11.034Z,1003.78
2016-10-07T04:13:11.055Z,1003.73
2016-10-07T04:14:11.070Z,1003.77
2016-10-07T04:15:11.088Z,1003.75
2016-10-07T04:16:11.103Z,1003.71
2016-10-07T04:17:11.119Z,1003.74
2016-10-07T04:18:11.139Z,1003.7
2016-10-07T04:19:11.152Z,1003.64
2016-10-07T04:20:11.173Z,1003.65
2016-10-07T04:21:11.186Z,1003.66
2016-10-07T04:22:11.200Z,1003.66
2016-10-07T04:23:11.221Z,1003.66
2016-10-07T04:24:11.237Z,1003.67
2016-10-07T04:25:11.251Z,1003.66
2016-10-07T04:26:11.268Z,1003.66
2016-10-07T04:27:11.290Z,1003.65
2016-10-07T04:28:11.303Z,1003.68
2016-10-07T04:29:11.319Z,1003.66
2016-10-07T04:30:11.335Z,1003.71
2016-10-07T04:31:11.352Z,1003.7
2016-10-07T04:32:11.369Z,1003.66
2016-10-07T04:33:11.387Z,1003.74
2016-10-07T04:34:11.398Z,1003.69
2016-10-07T04:35:11.419Z,1003.7
2016-10-07T04:36:11.432Z,1003.67
2016-10-07T04:37:11.452Z,1003.68
2016-10-07T04:38:11.467Z,1003.65
2016-10-07T04:39:11.486Z,1003.68
2016-10-07T04:40:11.501Z,1003.69
2016-10-07T04:41:11.513Z,1003.71
2016-10-07T04:42:11.536Z,1003.69
2016-10-07T04:43:11.552Z,1003.67
2016-10-07T04:44:11.567Z,1003.66
2016-10-07T04:45:11.586Z,1003.65
2016-10-07T04:46:11.604Z,1003.62
2016-10-07T04:47:11.616Z,1003.64
2016-10-07T04:48:11.636Z,1003.64
2016-10-07T04:49:11.654Z,1003.65
2016-10-07T04:50:11.667Z,1003.65
2016-10-07T04:51:11.684Z,1003.63
2016-10-07T04:52:11.702Z,1003.59
2016-10-07T04:53:11.716Z,1003.63
2016-10-07T04:54:11.735Z,1003.63
2016-10-07T04:55:11.752Z,1003.66
2016-10-07T04:56:11.766Z,1003.62
2016-10-07T04:57:11.782Z,1003.67
2016-10-07T04:58:11.801Z,1003.64
2016-10-07T04:59:11.815Z,1003.61
2016-10-07T05:00:11.827Z,1003.64
2016-10-07T05:01:11.846Z,1003.65
2016-10-07T05:02:11.864Z,1003.66
2016-10-07T05:03:11.885Z,1003.68
2016-10-07T05:04:11.895Z,1003.68
2016-10-07T05:05:11.917Z,1003.66
2016-10-07T05:06:11.931Z,1003.65
2016-10-07T05:07:11.945Z,1003.66
2016-10-07T05:08:11.964Z,1003.67
2016-10-07T05:09:11.984Z,1003.68
2016-10-07T05:10:11.998Z,1003.68
2016-10-07T05:11:12.009Z,1003.68
2016-10-07T05:12:12.034Z,1003.64
2016-10-07T05:13:12.049Z,1003.68
2016-10-07T05:14:12.065Z,1003.66
2016-10-07T05:15:12.078Z,1003.68
2016-10-07T05:16:12.097Z,1003.71
2016-10-07T05:17:12.118Z,1003.72
2016-10-07T05:18:12.130Z,1003.67
2016-10-07T05:19:12.147Z,1003.73
2016-10-07T05:20:12.160Z,1003.73
2016-10-07T05:21:12.182Z,1003.75
2016-10-07T05:22:12.192Z,1003.73
2016-10-07T05:23:12.208Z,1003.72
2016-10-07T05:24:12.231Z,1003.69
2016-10-07T05:25:12.242Z,1003.72
2016-10-07T05:26:12.263Z,1003.71
2016-10-07T05:27:12.280Z,1003.73
2016-10-07T05:28:12.297Z,1003.7
2016-10-07T05:29:12.310Z,1003.71
2016-10-07T05:30:12.328Z,1003.73
2016-10-07T05:31:12.343Z,1003.67
2016-10-07T05:32:12.357Z,1003.67
2016-10-07T05:33:12.373Z,1003.69
2016-10-07T05:34:12.390Z,1003.73
2016-10-07T05:35:12.412Z,1003.72
2016-10-07T05:36:12.428Z,1003.71
2016-10-07T05:37:12.446Z,1003.77
2016-10-07T05:38:12.460Z,1003.72
2016-10-07T05:39:12.475Z,1003.78
2016-10-07T05:40:12.491Z,1003.76
2016-10-07T05:41:12.508Z,1003.74
2016-10-07T05:42:12.532Z,1003.77
2016-10-07T05:43:12.541Z,1003.74
2016-10-07T05:44:12.556Z,1003.73
2016-10-07T05:45:12.579Z,1003.73
2016-10-07T05:46:12.589Z,1003.72
2016-10-07T05:47:12.611Z,1003.71
2016-10-07T05:48:12.626Z,1003.73
2016-10-07T05:49:12.644Z,1003.7
2016-10-07T05:50:12.657Z,1003.72
2016-10-07T05:51:12.675Z,1003.69
2016-10-07T05:52:12.693Z,1003.69
2016-10-07T05:53:12.710Z,1003.63
2016-10-07T05:54:12.725Z,1003.6
2016-10-07T05:55:12.744Z,1003.63
2016-10-07T05:56:12.760Z,1003.65
2016-10-07T05:57:12.777Z,1003.67
2016-10-07T05:58:12.794Z,1003.67
2016-10-07T05:59:12.804Z,1003.68
2016-10-07T06:00:12.824Z,1003.68
2016-10-07T06:01:12.842Z,1003.66
2016-10-07T06:02:12.854Z,1003.69
2016-10-07T06:03:12.872Z,1003.69
2016-10-07T06:04:12.892Z,1003.71
2016-10-07T06:05:12.908Z,1003.73
2016-10-07T06:06:12.922Z,1003.78
2016-10-07T06:07:12.940Z,1003.79
2016-10-07T06:08:12.959Z,1003.84
2016-10-07T06:09:12.973Z,1003.81
2016-10-07T06:10:12.991Z,1003.8
2016-10-07T06:11:13.010Z,1003.82
2016-10-07T06:12:13.024Z,1003.81
2016-10-07T06:13:13.039Z,1003.82
2016-10-07T06:14:13.061Z,1003.84
2016-10-07T06:15:13.070Z,1003.79
2016-10-07T06:16:13.085Z,1003.79
2016-10-07T06:17:13.102Z,1003.81
2016-10-07T06:18:13.125Z,1003.82
2016-10-07T06:19:13.140Z,1003.84
2016-10-07T06:20:13.152Z,1003.8
2016-10-07T06:21:13.175Z,1003.81
2016-10-07T06:22:13.189Z,1003.78
2016-10-07T06:23:13.201Z,1003.84
2016-10-07T06:24:13.221Z,1003.82
2016-10-07T06:25:13.239Z,1003.83
2016-10-07T06:26:13.255Z,1003.82
2016-10-07T06:27:13.272Z,1003.83
2016-10-07T06:28:13.293Z,1003.83
2016-10-07T06:29:13.306Z,1003.85
2016-10-07T06:30:13.317Z,1003.84
2016-10-07T06:31:13.339Z,1003.86
2016-10-07T06:32:13.352Z,1003.85
2016-10-07T06:33:13.372Z,1003.88
2016-10-07T06:34:13.385Z,1003.9
2016-10-07T06:35:13.398Z,1003.89
2016-10-07T06:36:13.420Z,1003.88
2016-10-07T06:37:13.432Z,1003.84
2016-10-07T06:38:13.456Z,1003.84
2016-10-07T06:39:13.469Z,1003.82
2016-10-07T06:40:13.488Z,1003.83
2016-10-07T06:41:13.504Z,1003.85
2016-10-07T06:42:13.515Z,1003.82
2016-10-07T06:43:13.535Z,1003.87
2016-10-07T06:44:13.546Z,1003.77
2016-10-07T06:45:13.563Z,1003.87
2016-10-07T06:46:13.586Z,1003.88
2016-10-07T06:47:13.596Z,1003.86
2016-10-07T06:48:13.616Z,1003.84
2016-10-07T06:49:13.632Z,1003.88
2016-10-07T06:50:13.644Z,1003.85
2016-10-07T06:51:13.662Z,1003.85
2016-10-07T06:52:13.680Z,1003.85
2016-10-07T06:53:13.701Z,1003.88
2016-10-07T06:54:13.716Z,1003.88
2016-10-07T06:55:13.734Z,1003.87
2016-10-07T06:56:13.752Z,1003.89
2016-10-07T06:57:13.768Z,1003.91
2016-10-07T06:58:13.786Z,1003.92
2016-10-07T06:59:13.796Z,1003.89
2016-10-07T07:00:13.812Z,1003.91
2016-10-07T07:01:13.833Z,1003.9
2016-10-07T07:02:13.854Z,1003.89
2016-10-07T07:03:13.866Z,1003.9
2016-10-07T07:04:13.879Z,1003.93
2016-10-07T07:05:13.900Z,1003.93
2016-10-07T07:06:13.910Z,1003.92
2016-10-07T07:07:13.930Z,1003.92
2016-10-07T07:08:13.951Z,1003.98
2016-10-07T07:09:13.962Z,1003.97
2016-10-07T07:10:13.981Z,1003.96
2016-10-07T07:11:14.002Z,1003.97
2016-10-07T07:12:14.016Z,1003.96
2016-10-07T07:13:14.029Z,1004
2016-10-07T07:14:14.051Z,1004.02
2016-10-07T07:15:14.062Z,1003.98
2016-10-07T07:16:14.083Z,1004
2016-10-07T07:17:14.101Z,1004
2016-10-07T07:18:14.115Z,1003.99
2016-10-07T07:19:14.135Z,1003.96
2016-10-07T07:20:14.147Z,1003.98
2016-10-07T07:21:14.164Z,1003.99
2016-10-07T07:22:14.185Z,1003.99
2016-10-07T07:23:14.205Z,1003.99
2016-10-07T07:24:14.220Z,1004.02
2016-10-07T07:25:14.239Z,1004.03
2016-10-07T07:26:14.249Z,1004.01
2016-10-07T07:27:14.267Z,1003.99
2016-10-07T07:28:14.289Z,1003.99
2016-10-07T07:29:14.302Z,1004.05
2016-10-07T07:30:14.323Z,1004.1
2016-10-07T07:31:14.339Z,1004.06
2016-10-07T07:32:14.355Z,1004.04
2016-10-07T07:33:14.369Z,1004.06
2016-10-07T07:34:14.385Z,1004.08
2016-10-07T07:35:14.404Z,1004.1
2016-10-07T07:36:14.421Z,1004.12
2016-10-07T07:37:14.436Z,1004.12
2016-10-07T07:38:14.455Z,1004.13
2016-10-07T07:39:14.475Z,1004.14
2016-10-07T07:40:14.489Z,1004.13
2016-10-07T07:41:14.506Z,1004.14
2016-10-07T07:42:14.519Z,1004.15
2016-10-07T07:43:14.539Z,1004.14
2016-10-07T07:44:14.558Z,1004.19
2016-10-07T07:45:14.574Z,1004.19
2016-10-07T07:46:14.591Z,1004.14
2016-10-07T07:47:14.608Z,1004.12
2016-10-07T07:48:14.619Z,1004.13
2016-10-07T07:49:14.636Z,1004.17
2016-10-07T07:50:14.660Z,1004.17
2016-10-07T07:51:14.673Z,1004.19
2016-10-07T07:52:14.692Z,1004.24
2016-10-07T07:53:14.704Z,1004.23
2016-10-07T07:54:14.723Z,1004.21
2016-10-07T07:55:14.743Z,1004.24
2016-10-07T07:56:14.761Z,1004.24
2016-10-07T07:57:14.775Z,1004.24
2016-10-07T07:58:14.789Z,1004.23
2016-10-07T07:59:14.811Z,1004.25
2016-10-07T08:00:14.825Z,1004.24
2016-10-07T08:01:14.842Z,1004.26
2016-10-07T08:02:14.856Z,1004.25
2016-10-07T08:03:14.876Z,1004.24
2016-10-07T08:04:14.894Z,1004.2
2016-10-07T08:05:14.909Z,1004.23
2016-10-07T08:06:14.924Z,1004.2
2016-10-07T08:07:14.947Z,1004.25
2016-10-07T08:08:14.965Z,1004.3
2016-10-07T08:09:14.981Z,1004.25
2016-10-07T08:10:14.995Z,1004.26
2016-10-07T08:11:15.012Z,1004.27
2016-10-07T08:12:15.030Z,1004.28
2016-10-07T08:13:15.048Z,1004.31
2016-10-07T08:14:15.070Z,1004.31
2016-10-07T08:15:15.086Z,1004.32
2016-10-07T08:16:15.103Z,1004.32
2016-10-07T08:17:15.167Z,1004.36
2016-10-07T08:18:15.138Z,1004.37
2016-10-07T08:19:15.149Z,1004.41
2016-10-07T08:20:15.171Z,1004.36
2016-10-07T08:21:15.182Z,1004.4
2016-10-07T08:22:15.205Z,1004.43
2016-10-07T08:23:15.222Z,1004.45
2016-10-07T08:24:15.243Z,1004.49
2016-10-07T08:25:15.260Z,1004.5
2016-10-07T08:26:15.277Z,1004.53
2016-10-07T08:27:15.293Z,1004.55
2016-10-07T08:28:15.310Z,1004.5
2016-10-07T08:29:15.326Z,1004.48
2016-10-07T08:30:15.348Z,1004.52
2016-10-07T08:31:15.359Z,1004.47
2016-10-07T08:32:15.382Z,1004.49
2016-10-07T08:33:15.397Z,1004.44
2016-10-07T08:34:15.418Z,1004.46
2016-10-07T08:35:15.436Z,1004.48
2016-10-07T08:36:15.448Z,1004.5
2016-10-07T08:37:15.470Z,1004.5
2016-10-07T08:38:15.490Z,1004.52
2016-10-07T08:39:15.508Z,1004.59
2016-10-07T08:40:15.525Z,1004.56
2016-10-07T08:41:15.587Z,1004.55
2016-10-07T08:42:15.594Z,1004.53
2016-10-07T08:43:15.624Z,1004.52
2016-10-07T08:44:15.648Z,1004.49
2016-10-07T08:45:15.613Z,1004.52
2016-10-07T08:46:15.627Z,1004.48
2016-10-07T08:47:15.651Z,1004.49
2016-10-07T08:48:15.665Z,1004.46
2016-10-07T08:49:15.686Z,1004.47
2016-10-07T08:50:15.702Z,1004.46
2016-10-07T08:51:15.720Z,1004.46
2016-10-07T08:52:15.738Z,1004.46
2016-10-07T08:53:15.754Z,1004.48
2016-10-07T08:54:15.772Z,1004.39
2016-10-07T08:55:15.791Z,1004.43
2016-10-07T08:56:15.811Z,1004.38
2016-10-07T08:57:15.828Z,1004.36
2016-10-07T08:58:15.846Z,1004.41
2016-10-07T08:59:15.869Z,1004.37
2016-10-07T09:00:15.880Z,1004.44
2016-10-07T09:01:15.905Z,1004.42
2016-10-07T09:02:15.923Z,1004.49
2016-10-07T09:03:15.939Z,1004.43
2016-10-07T09:04:15.956Z,1004.46
2016-10-07T09:05:15.977Z,1004.44
2016-10-07T09:06:15.994Z,1004.46
2016-10-07T09:07:16.016Z,1004.48
2016-10-07T09:08:16.030Z,1004.54
2016-10-07T09:09:16.048Z,1004.54
2016-10-07T09:10:16.068Z,1004.57
2016-10-07T09:11:16.087Z,1004.56
2016-10-07T09:12:16.106Z,1004.58
2016-10-07T09:13:16.118Z,1004.57
2016-10-07T09:14:16.141Z,1004.54
2016-10-07T09:15:16.157Z,1004.53
2016-10-07T09:16:16.176Z,1004.48
2016-10-07T09:17:16.195Z,1004.52
2016-10-07T09:18:16.214Z,1004.46
2016-10-07T09:19:16.233Z,1004.44
2016-10-07T09:20:16.251Z,1004.44
2016-10-07T09:21:16.267Z,1004.44
2016-10-07T09:22:16.285Z,1004.44
2016-10-07T09:23:16.308Z,1004.46
2016-10-07T09:24:16.326Z,1004.47
2016-10-07T09:25:16.344Z,1004.52
2016-10-07T09:26:16.363Z,1004.53
2016-10-07T09:27:16.384Z,1004.55
2016-10-07T09:28:16.399Z,1004.51
2016-10-07T09:29:16.420Z,1004.54
2016-10-07T09:30:16.433Z,1004.49
2016-10-07T09:31:16.450Z,1004.47
2016-10-07T09:32:16.475Z,1004.46
2016-10-07T09:33:16.486Z,1004.46
2016-10-07T09:34:16.511Z,1004.45
2016-10-07T09:35:16.530Z,1004.44
2016-10-07T09:36:16.550Z,1004.42
2016-10-07T09:37:16.562Z,1004.44
2016-10-07T09:38:16.585Z,1004.41
2016-10-07T09:39:16.606Z,1004.5
2016-10-07T09:40:16.618Z,1004.52
2016-10-07T09:41:16.639Z,1004.52
2016-10-07T09:42:16.659Z,1004.47
2016-10-07T09:43:16.680Z,1004.48
2016-10-07T09:44:16.696Z,1004.54
2016-10-07T09:45:16.713Z,1004.57
2016-10-07T09:46:16.732Z,1004.56
2016-10-07T09:47:16.752Z,1004.57
2016-10-07T09:48:16.769Z,1004.63
2016-10-07T09:49:16.791Z,1004.61
2016-10-07T09:50:16.803Z,1004.57
2016-10-07T09:51:16.828Z,1004.58
2016-10-07T09:52:16.839Z,1004.53
2016-10-07T09:53:16.865Z,1004.5
2016-10-07T09:54:16.879Z,1004.53
2016-10-07T09:55:16.901Z,1004.53
2016-10-07T09:56:16.919Z,1004.55
2016-10-07T09:57:16.938Z,1004.59
2016-10-07T09:58:16.952Z,1004.58
2016-10-07T09:59:16.974Z,1004.57
2016-10-07T10:00:16.993Z,1004.58
2016-10-07T10:01:17.010Z,1004.65
2016-10-07T10:02:17.032Z,1004.65
2016-10-07T10:03:17.047Z,1004.65
2016-10-07T10:04:17.065Z,1004.7
2016-10-07T10:05:17.087Z,1004.6
2016-10-07T10:06:17.101Z,1004.64
2016-10-07T10:07:17.125Z,1004.64
2016-10-07T10:08:17.139Z,1004.63
2016-10-07T10:09:17.162Z,1004.62
2016-10-07T10:10:17.178Z,1004.57
2016-10-07T10:11:17.200Z,1004.57
2016-10-07T10:12:17.214Z,1004.61
2016-10-07T10:13:17.237Z,1004.57
2016-10-07T10:14:17.252Z,1004.59
2016-10-07T10:15:17.270Z,1004.55
2016-10-07T10:16:17.296Z,1004.47
2016-10-07T10:17:17.313Z,1004.5
2016-10-07T10:18:17.324Z,1004.55
2016-10-07T10:19:17.350Z,1004.63
2016-10-07T10:20:17.367Z,1004.65
2016-10-07T10:21:17.383Z,1004.61
2016-10-07T10:22:17.406Z,1004.61
2016-10-07T10:23:17.426Z,1004.68
2016-10-07T10:24:17.440Z,1004.69
2016-10-07T10:25:17.461Z,1004.56
2016-10-07T10:26:17.476Z,1004.55
2016-10-07T10:27:17.496Z,1004.54
2016-10-07T10:28:17.517Z,1004.5
2016-10-07T10:29:17.534Z,1004.5
2016-10-07T10:30:17.555Z,1004.44
2016-10-07T10:31:17.570Z,1004.43
2016-10-07T10:32:17.592Z,1004.45
2016-10-07T10:33:17.611Z,1004.45
2016-10-07T10:34:17.631Z,1004.46
2016-10-07T10:35:17.649Z,1004.45
2016-10-07T10:36:17.663Z,1004.42
2016-10-07T10:37:17.686Z,1004.42
2016-10-07T10:38:17.704Z,1004.42
2016-10-07T10:39:17.722Z,1004.44
2016-10-07T10:40:17.741Z,1004.41
2016-10-07T10:41:17.758Z,1004.49
2016-10-07T10:42:17.782Z,1004.43
2016-10-07T10:43:17.799Z,1004.38
2016-10-07T10:44:17.819Z,1004.41
2016-10-07T10:45:17.840Z,1004.35
2016-10-07T10:46:17.856Z,1004.37
2016-10-07T10:47:17.879Z,1004.5
2016-10-07T10:48:17.894Z,1004.51
2016-10-07T10:49:17.911Z,1004.53
2016-10-07T10:50:17.931Z,1004.55
2016-10-07T10:51:17.952Z,1004.6
2016-10-07T10:52:17.965Z,1004.68
2016-10-07T10:53:17.991Z,1004.6
2016-10-07T10:54:18.004Z,1004.58
2016-10-07T10:55:18.023Z,1004.64
2016-10-07T10:56:18.043Z,1004.56
2016-10-07T10:57:18.063Z,1004.52
2016-10-07T10:58:18.086Z,1004.57
2016-10-07T10:59:18.103Z,1004.49
2016-10-07T11:00:18.122Z,1004.5
2016-10-07T11:01:18.139Z,1004.44
2016-10-07T11:02:18.163Z,1004.46
2016-10-07T11:03:18.174Z,1004.43
2016-10-07T11:04:18.194Z,1004.48
2016-10-07T11:05:18.217Z,1004.42
2016-10-07T11:06:18.232Z,1004.46
2016-10-07T11:07:18.256Z,1004.41
2016-10-07T11:08:18.272Z,1004.47
2016-10-07T11:09:18.293Z,1004.47
2016-10-07T11:10:18.313Z,1004.41
2016-10-07T11:11:18.330Z,1004.39
2016-10-07T11:12:18.345Z,1004.38
2016-10-07T11:13:18.367Z,1004.38
2016-10-07T11:14:18.388Z,1004.38
2016-10-07T11:15:18.408Z,1004.36
2016-10-07T11:16:18.424Z,1004.34
2016-10-07T11:17:18.442Z,1004.36
2016-10-07T11:18:18.464Z,1004.36
2016-10-07T11:19:18.480Z,1004.39
2016-10-07T11:20:18.501Z,1004.35
2016-10-07T11:21:18.524Z,1004.33
2016-10-07T11:22:18.541Z,1004.42
2016-10-07T11:23:18.561Z,1004.45
2016-10-07T11:24:18.577Z,1004.4
2016-10-07T11:25:18.600Z,1004.5
2016-10-07T11:26:18.614Z,1004.5
2016-10-07T11:27:18.631Z,1004.49
2016-10-07T11:28:18.655Z,1004.5
2016-10-07T11:29:18.678Z,1004.51
2016-10-07T11:30:18.694Z,1004.52
2016-10-07T11:31:18.715Z,1004.46
2016-10-07T11:32:18.737Z,1004.53
2016-10-07T11:33:18.758Z,1004.52
2016-10-07T11:34:18.777Z,1004.53
2016-10-07T11:35:18.792Z,1004.53
2016-10-07T11:36:18.807Z,1004.51
2016-10-07T11:37:18.834Z,1004.5
2016-10-07T11:38:18.845Z,1004.52
2016-10-07T11:39:18.886Z,1004.44
2016-10-07T11:40:18.892Z,1004.53
2016-10-07T11:41:18.912Z,1004.51
2016-10-07T11:42:18.929Z,1004.46
2016-10-07T11:43:18.948Z,1004.53
2016-10-07T11:44:18.973Z,1004.54
2016-10-07T11:45:18.987Z,1004.56
2016-10-07T11:46:19.010Z,1004.48
2016-10-07T11:47:19.032Z,1004.52
2016-10-07T11:48:19.050Z,1004.52
2016-10-07T11:49:19.066Z,1004.47
2016-10-07T11:50:19.090Z,1004.41
2016-10-07T11:51:19.106Z,1004.41
2016-10-07T11:52:19.130Z,1004.41
2016-10-07T11:53:19.151Z,1004.4
2016-10-07T11:54:19.175Z,1004.41
2016-10-07T11:55:19.193Z,1004.47
2016-10-07T11:56:19.205Z,1004.4
2016-10-07T11:57:19.233Z,1004.4
2016-10-07T11:58:19.253Z,1004.39
2016-10-07T11:59:19.272Z,1004.32
2016-10-07T12:00:19.291Z,1004.25
2016-10-07T12:01:19.310Z,1004.22
2016-10-07T12:02:19.327Z,1004.12
2016-10-07T12:03:19.348Z,1004.12
2016-10-07T12:04:19.374Z,1004.1
2016-10-07T12:05:19.393Z,1004.08
2016-10-07T12:06:19.413Z,1004.08
2016-10-07T12:07:19.432Z,1004.07
2016-10-07T12:08:19.454Z,1004.04
2016-10-07T12:09:19.476Z,1004.01